Time;durP1;ratioP1;P1;durP2;ratioP2;P2;SDS_P1;SDS_P2;PMS_P1;PMS_P2;Temp;Humidity;BMP_temperature;BMP_pressure;BME280_temperature;BME280_humidity;BME280_pressure;Samples;Min_cycle;Max_cycle;Signal;HPM_P1;HPM_P2
2023/05/09 00:02:01;;;;;;;;;;;21.30;91.10;;;;;;5076791;28;19913;-83
2023/05/09 00:04:28;;;;;;;;;;;21.20;91.10;;;;;;5077444;28;19935;-83
2023/05/09 00:06:53;;;;;;;;;;;21.20;91.10;;;;;;5078582;28;19908;-83
2023/05/09 00:09:18;;;;;;;;;;;21.20;91.10;;;;;;5077886;28;19913;-83
2023/05/09 00:11:44;;;;;;;;;;;21.20;91.10;;;;;;5076421;28;19916;-83
2023/05/09 00:14:12;;;;;;;;;;;21.20;91.10;;;;;;5077525;28;19948;-82
2023/05/09 00:16:38;;;;;;;;;;;21.20;91.10;;;;;;5077668;28;20277;-83
2023/05/09 00:19:03;;;;;;;;;;;21.20;91.10;;;;;;5077638;28;20015;-82
2023/05/09 00:21:29;;;;;;;;;;;21.20;91.10;;;;;;5077339;28;19973;-82
2023/05/09 00:23:55;;;;;;;;;;;21.20;91.20;;;;;;5076255;28;20163;-82
2023/05/09 00:26:25;;;;;;;;;;;21.20;91.20;;;;;;5074931;28;19916;-82
2023/05/09 00:28:50;;;;;;;;;;;21.20;91.20;;;;;;5073183;28;20309;-83
2023/05/09 00:31:19;;;;;;;;;;;21.10;91.20;;;;;;5076116;28;19908;-83
2023/05/09 00:33:45;;;;;;;;;;;21.20;91.20;;;;;;5088977;28;19916;-83
2023/05/09 00:36:10;;;;;;;;;;;21.20;91.20;;;;;;5080213;28;20065;-83
2023/05/09 00:38:36;;;;;;;;;;;21.10;91.20;;;;;;5077637;28;19908;-83
2023/05/09 00:41:04;;;;;;;;;;;21.10;91.20;;;;;;5078515;28;19919;-83
2023/05/09 00:43:30;;;;;;;;;;;21.10;91.20;;;;;;5096031;28;19908;-82
2023/05/09 00:45:55;;;;;;;;;;;21.10;91.20;;;;;;5097641;28;20193;-83
2023/05/09 00:48:21;;;;;;;;;;;21.10;91.20;;;;;;5095735;28;19916;-83
2023/05/09 00:50:51;;;;;;;;;;;21.10;91.20;;;;;;5076942;28;19935;-83
2023/05/09 00:53:18;;;;;;;;;;;21.10;91.20;;;;;;5095368;28;19908;-83
2023/05/09 00:55:44;;;;;;;;;;;21.10;91.20;;;;;;5097462;28;19919;-82
2023/05/09 00:58:10;;;;;;;;;;;21.10;91.20;;;;;;5079898;28;19908;-83
2023/05/09 01:00:36;;;;;;;;;;;21.10;91.20;;;;;;5081042;28;20216;-83
2023/05/09 01:03:02;;;;;;;;;;;21.00;91.20;;;;;;5098292;28;19991;-83
2023/05/09 01:05:42;;;;;;;;;;;21.00;91.20;;;;;;5080683;28;20016;-82
2023/05/09 01:08:34;;;;;;;;;;;21.00;91.20;;;;;;5080114;28;20181;-83
2023/05/09 01:11:06;;;;;;;;;;;21.00;91.20;;;;;;5065370;28;19939;-83
2023/05/09 01:14:00;;;;;;;;;;;21.00;91.20;;;;;;5080281;28;19909;-83
2023/05/09 01:16:48;;;;;;;;;;;21.00;91.20;;;;;;5094443;28;20183;-83
2023/05/09 01:19:17;;;;;;;;;;;21.00;91.20;;;;;;5079014;28;19919;-83
2023/05/09 01:21:45;;;;;;;;;;;21.00;91.20;;;;;;5112733;28;19915;-83
2023/05/09 01:24:29;;;;;;;;;;;21.00;91.20;;;;;;5079384;28;19908;-83
2023/05/09 01:27:01;;;;;;;;;;;21.00;91.20;;;;;;5095594;28;19908;-83
2023/05/09 01:29:27;;;;;;;;;;;20.90;91.20;;;;;;5112754;28;20273;-83
2023/05/09 01:31:54;;;;;;;;;;;21.00;91.20;;;;;;5113233;28;19958;-83
2023/05/09 01:34:21;;;;;;;;;;;20.90;91.20;;;;;;5075576;28;19924;-83
2023/05/09 01:36:48;;;;;;;;;;;20.90;91.20;;;;;;5074949;28;19908;-83
2023/05/09 01:39:15;;;;;;;;;;;20.90;91.20;;;;;;5075115;28;20379;-83
2023/05/09 01:41:41;;;;;;;;;;;20.90;91.20;;;;;;5074350;28;19927;-83
2023/05/09 01:44:08;;;;;;;;;;;20.90;91.20;;;;;;5074897;28;19909;-82
2023/05/09 01:46:40;;;;;;;;;;;20.90;91.20;;;;;;5072639;28;19920;-82
2023/05/09 01:49:07;;;;;;;;;;;20.90;91.20;;;;;;5073248;28;19912;-82
2023/05/09 01:51:33;;;;;;;;;;;20.90;91.20;;;;;;5071091;28;20190;-82
2023/05/09 01:54:00;;;;;;;;;;;20.90;91.20;;;;;;5075699;28;19909;-82
2023/05/09 01:56:26;;;;;;;;;;;20.90;91.20;;;;;;5075605;28;19913;-82
2023/05/09 01:58:54;;;;;;;;;;;20.80;91.20;;;;;;5076413;28;19955;-82
2023/05/09 02:01:20;;;;;;;;;;;20.90;91.30;;;;;;5076229;28;19909;-83
2023/05/09 02:03:49;;;;;;;;;;;20.90;91.30;;;;;;5046996;28;19909;-83
2023/05/09 02:06:19;;;;;;;;;;;20.90;91.20;;;;;;5036455;28;19913;-83
2023/05/09 02:08:45;;;;;;;;;;;20.90;91.20;;;;;;5036274;28;19913;-83
2023/05/09 02:11:11;;;;;;;;;;;20.90;91.30;;;;;;5035595;28;19917;-83
2023/05/09 02:13:37;;;;;;;;;;;20.80;91.20;;;;;;5035983;28;20161;-83
2023/05/09 02:16:03;;;;;;;;;;;20.80;91.20;;;;;;5035764;28;20257;-83
2023/05/09 02:18:28;;;;;;;;;;;20.80;91.20;;;;;;5038793;28;20283;-83
2023/05/09 02:20:54;;;;;;;;;;;20.80;91.20;;;;;;5037040;28;19913;-83
2023/05/09 02:23:19;;;;;;;;;;;20.80;91.20;;;;;;5038158;28;19909;-83
2023/05/09 02:25:45;;;;;;;;;;;20.80;91.20;;;;;;5037377;28;19920;-83
2023/05/09 02:28:11;;;;;;;;;;;20.80;91.20;;;;;;5036432;28;19927;-82
2023/05/09 02:30:41;;;;;;;;;;;20.80;91.20;;;;;;5037617;28;19996;-83
2023/05/09 02:33:08;;;;;;;;;;;20.80;91.20;;;;;;5040369;28;19920;-83
2023/05/09 02:35:34;;;;;;;;;;;20.80;91.20;;;;;;5042075;28;19912;-83
2023/05/09 02:38:00;;;;;;;;;;;20.80;91.20;;;;;;5042548;28;19999;-83
2023/05/09 02:40:27;;;;;;;;;;;20.80;91.20;;;;;;5042088;28;20000;-83
2023/05/09 02:42:52;;;;;;;;;;;20.80;91.20;;;;;;5059591;28;19973;-83
2023/05/09 02:45:18;;;;;;;;;;;20.80;91.20;;;;;;5059799;28;19909;-83
2023/05/09 02:47:43;;;;;;;;;;;20.80;91.20;;;;;;5042751;28;20183;-83
2023/05/09 02:50:09;;;;;;;;;;;20.80;91.20;;;;;;5060008;28;19912;-83
2023/05/09 02:52:35;;;;;;;;;;;20.70;91.20;;;;;;5041583;28;20206;-83
2023/05/09 02:55:06;;;;;;;;;;;20.70;91.10;;;;;;5060109;28;19913;-83
2023/05/09 02:57:31;;;;;;;;;;;20.70;91.10;;;;;;5042896;28;20040;-83
2023/05/09 02:59:57;;;;;;;;;;;20.70;91.10;;;;;;5042226;28;19992;-83
2023/05/09 03:02:23;;;;;;;;;;;20.70;91.10;;;;;;5041964;28;19917;-83
2023/05/09 03:04:48;;;;;;;;;;;20.70;91.10;;;;;;5041020;28;19920;-83
2023/05/09 03:07:14;;;;;;;;;;;20.70;91.10;;;;;;5041912;28;19919;-83
2023/05/09 03:09:39;;;;;;;;;;;20.70;91.10;;;;;;5041975;28;19924;-83
2023/05/09 03:12:05;;;;;;;;;;;20.70;91.10;;;;;;5041206;28;19908;-83
2023/05/09 03:14:30;;;;;;;;;;;20.70;91.10;;;;;;5058678;28;19920;-83
2023/05/09 03:16:56;;;;;;;;;;;20.70;91.10;;;;;;5041206;28;19913;-83
2023/05/09 03:19:21;;;;;;;;;;;20.70;91.10;;;;;;5039240;28;19924;-83
2023/05/09 03:21:47;;;;;;;;;;;20.60;91.10;;;;;;5056568;28;19955;-82
2023/05/09 03:24:12;;;;;;;;;;;20.60;91.10;;;;;;5038731;28;20332;-82
2023/05/09 03:26:41;;;;;;;;;;;20.60;91.10;;;;;;5037606;28;19909;-83
2023/05/09 03:29:06;;;;;;;;;;;20.60;91.10;;;;;;5054315;28;20011;-83
2023/05/09 03:31:32;;;;;;;;;;;20.60;91.10;;;;;;5054940;28;19999;-83
2023/05/09 03:34:00;;;;;;;;;;;20.60;91.10;;;;;;5035089;28;19917;-83
2023/05/09 03:36:32;;;;;;;;;;;20.60;91.10;;;;;;5035777;28;20012;-83
2023/05/09 03:38:57;;;;;;;;;;;20.60;91.10;;;;;;5033455;28;20461;-83
2023/05/09 03:41:26;;;;;;;;;;;20.60;91.10;;;;;;5035778;28;19909;-83
2023/05/09 03:43:55;;;;;;;;;;;20.60;91.10;;;;;;5036892;28;19916;-83
2023/05/09 03:46:20;;;;;;;;;;;20.60;91.10;;;;;;5036420;28;19909;-83
2023/05/09 03:48:46;;;;;;;;;;;20.60;91.00;;;;;;5034568;28;19939;-82
2023/05/09 03:51:14;;;;;;;;;;;20.60;91.00;;;;;;5037117;28;19916;-83
2023/05/09 03:53:40;;;;;;;;;;;20.60;91.00;;;;;;5035030;28;19909;-83
2023/05/09 03:56:06;;;;;;;;;;;20.60;91.00;;;;;;5033565;28;20294;-83
2023/05/09 03:58:34;;;;;;;;;;;20.60;91.00;;;;;;5033183;28;19913;-83
2023/05/09 04:01:01;;;;;;;;;;;20.60;91.00;;;;;;5032398;28;19909;-83
2023/05/09 04:03:26;;;;;;;;;;;20.60;91.00;;;;;;5033090;28;19917;-83
2023/05/09 04:05:52;;;;;;;;;;;20.60;91.00;;;;;;5033186;28;19909;-83
2023/05/09 04:08:20;;;;;;;;;;;20.60;91.00;;;;;;5032739;28;19917;-83
2023/05/09 04:10:46;;;;;;;;;;;20.60;90.90;;;;;;5031226;28;19909;-83
2023/05/09 04:13:12;;;;;;;;;;;20.60;90.90;;;;;;5032729;28;19909;-83
2023/05/09 04:15:37;;;;;;;;;;;20.60;90.90;;;;;;5031575;28;20234;-83
2023/05/09 04:18:03;;;;;;;;;;;20.60;90.90;;;;;;5033857;28;20014;-83
2023/05/09 04:20:30;;;;;;;;;;;20.60;90.90;;;;;;5033218;28;19987;-83
2023/05/09 04:22:58;;;;;;;;;;;20.60;90.90;;;;;;5034519;28;19909;-83
2023/05/09 04:25:28;;;;;;;;;;;20.60;90.90;;;;;;5034718;28;19916;-83
2023/05/09 04:27:54;;;;;;;;;;;20.60;90.90;;;;;;5027453;28;20082;-83
2023/05/09 04:30:20;;;;;;;;;;;20.60;90.90;;;;;;5032994;28;19916;-83
2023/05/09 04:32:45;;;;;;;;;;;20.60;90.90;;;;;;5032491;28;20009;-83
2023/05/09 04:35:11;;;;;;;;;;;20.60;90.80;;;;;;5030934;28;20094;-83
2023/05/09 04:37:40;;;;;;;;;;;20.60;90.80;;;;;;5029998;28;20011;-83
2023/05/09 04:40:07;;;;;;;;;;;20.60;90.80;;;;;;5029628;28;19910;-83
2023/05/09 04:42:33;;;;;;;;;;;20.60;90.70;;;;;;5030007;28;20271;-83
2023/05/09 04:44:59;;;;;;;;;;;20.60;90.70;;;;;;5030279;28;20001;-83
2023/05/09 04:47:25;;;;;;;;;;;20.60;90.80;;;;;;5029701;28;19963;-83
2023/05/09 04:49:50;;;;;;;;;;;20.60;90.80;;;;;;5030896;28;20311;-83
2023/05/09 04:52:16;;;;;;;;;;;20.60;90.80;;;;;;5031274;28;19910;-83
2023/05/09 04:54:47;;;;;;;;;;;20.60;90.80;;;;;;5033730;28;19909;-83
2023/05/09 04:57:13;;;;;;;;;;;20.60;90.80;;;;;;5034311;28;20187;-83
2023/05/09 04:59:38;;;;;;;;;;;20.60;90.80;;;;;;5029557;28;19913;-83
2023/05/09 05:02:07;;;;;;;;;;;20.60;90.80;;;;;;5034408;28;19913;-83
2023/05/09 05:04:36;;;;;;;;;;;20.60;90.80;;;;;;5033503;28;19909;-83
2023/05/09 05:07:02;;;;;;;;;;;20.50;90.80;;;;;;5032786;28;20187;-83
2023/05/09 05:09:27;;;;;;;;;;;20.60;90.80;;;;;;5030536;28;19914;-84
2023/05/09 05:11:53;;;;;;;;;;;20.60;90.80;;;;;;5029859;28;19916;-84
2023/05/09 05:14:18;;;;;;;;;;;20.60;90.80;;;;;;5028835;28;19909;-84
2023/05/09 05:16:44;;;;;;;;;;;20.60;90.80;;;;;;5028514;28;19917;-84
2023/05/09 05:19:12;;;;;;;;;;;20.60;90.80;;;;;;5029328;28;20263;-84
2023/05/09 05:21:38;;;;;;;;;;;20.60;90.80;;;;;;5030681;28;20193;-84
2023/05/09 05:24:06;;;;;;;;;;;20.60;90.80;;;;;;5028212;28;20271;-83
2023/05/09 05:26:35;;;;;;;;;;;20.60;90.80;;;;;;5029100;28;19931;-83
2023/05/09 05:29:00;;;;;;;;;;;20.60;90.90;;;;;;5026401;28;19913;-83
2023/05/09 05:31:26;;;;;;;;;;;20.60;90.90;;;;;;5028317;28;19909;-84
2023/05/09 05:33:55;;;;;;;;;;;20.60;90.80;;;;;;5026712;28;19917;-84
2023/05/09 05:36:23;;;;;;;;;;;20.60;90.80;;;;;;5026681;28;20055;-84
2023/05/09 05:38:50;;;;;;;;;;;20.60;90.70;;;;;;5026760;28;19908;-83
2023/05/09 05:41:15;;;;;;;;;;;20.60;90.70;;;;;;5025241;28;19917;-84
2023/05/09 05:43:41;;;;;;;;;;;20.60;90.70;;;;;;5024914;28;19915;-84
2023/05/09 05:46:06;;;;;;;;;;;20.60;90.70;;;;;;5027570;28;19949;-84
2023/05/09 05:48:32;;;;;;;;;;;20.60;90.70;;;;;;5021309;28;19909;-84
2023/05/09 05:50:58;;;;;;;;;;;20.70;90.70;;;;;;5023325;28;19936;-84
2023/05/09 05:53:26;;;;;;;;;;;20.70;90.70;;;;;;5028245;28;19909;-84
2023/05/09 05:55:55;;;;;;;;;;;20.70;90.70;;;;;;5028155;28;20254;-84
2023/05/09 05:58:20;;;;;;;;;;;20.70;90.60;;;;;;5030232;28;20315;-84
2023/05/09 06:00:50;;;;;;;;;;;20.80;90.60;;;;;;5030272;28;19919;-84
2023/05/09 06:03:16;;;;;;;;;;;20.80;90.50;;;;;;5031418;28;20187;-84
2023/05/09 06:05:43;;;;;;;;;;;20.80;90.80;;;;;;5031456;28;19917;-84
2023/05/09 06:08:08;;;;;;;;;;;20.80;90.60;;;;;;5031629;28;19909;-84
2023/05/09 06:10:36;;;;;;;;;;;20.90;90.70;;;;;;5029509;28;19917;-84
2023/05/09 06:13:02;;;;;;;;;;;20.90;90.60;;;;;;5029104;28;19909;-84
2023/05/09 06:15:28;;;;;;;;;;;20.90;90.50;;;;;;5027681;28;19909;-84
2023/05/09 06:17:56;;;;;;;;;;;20.90;90.50;;;;;;5026603;28;19984;-84
2023/05/09 06:20:21;;;;;;;;;;;21.00;90.40;;;;;;5026973;28;19909;-84
2023/05/09 06:22:47;;;;;;;;;;;21.00;90.40;;;;;;5027966;28;20187;-84
2023/05/09 06:25:13;;;;;;;;;;;21.10;90.10;;;;;;5028409;28;19909;-84
2023/05/09 06:27:41;;;;;;;;;;;21.10;90.00;;;;;;5027976;28;20157;-83
2023/05/09 06:30:10;;;;;;;;;;;21.20;89.80;;;;;;5027645;28;20011;-83
2023/05/09 06:32:35;;;;;;;;;;;21.20;89.50;;;;;;5026142;28;20160;-83
2023/05/09 06:35:01;;;;;;;;;;;21.30;89.10;;;;;;5031225;28;20447;-83
2023/05/09 06:37:26;;;;;;;;;;;21.40;88.80;;;;;;5029012;28;20162;-83
2023/05/09 06:39:53;;;;;;;;;;;21.40;88.40;;;;;;5025967;28;19924;-83
2023/05/09 06:42:18;;;;;;;;;;;21.60;88.00;;;;;;5027341;28;19910;-83
2023/05/09 06:44:44;;;;;;;;;;;21.70;87.20;;;;;;5033865;28;19928;-84
2023/05/09 06:47:10;;;;;;;;;;;21.80;86.90;;;;;;5029665;28;19948;-84
2023/05/09 06:49:35;;;;;;;;;;;21.90;86.10;;;;;;5029677;28;19928;-83
2023/05/09 06:52:01;;;;;;;;;;;22.00;86.00;;;;;;5030011;28;19909;-83
2023/05/09 06:54:26;;;;;;;;;;;21.90;85.40;;;;;;5030681;28;19909;-83
2023/05/09 06:56:52;;;;;;;;;;;21.90;85.70;;;;;;5027862;28;20235;-83
2023/05/09 06:59:17;;;;;;;;;;;21.80;86.10;;;;;;5029018;28;19909;-83
2023/05/09 07:01:43;;;;;;;;;;;21.80;86.70;;;;;;5030634;28;19983;-83
2023/05/09 07:04:08;;;;;;;;;;;21.80;86.90;;;;;;5030346;28;19917;-83
2023/05/09 07:06:37;;;;;;;;;;;21.80;86.90;;;;;;5031330;28;20120;-83
2023/05/09 07:09:06;;;;;;;;;;;21.80;86.80;;;;;;5030049;28;20084;-83
2023/05/09 07:11:35;;;;;;;;;;;21.80;87.20;;;;;;5030168;28;19917;-83
2023/05/09 07:14:00;;;;;;;;;;;21.80;87.20;;;;;;5029625;28;19910;-83
2023/05/09 07:16:28;;;;;;;;;;;21.80;86.90;;;;;;5029356;28;19916;-83
2023/05/09 07:18:54;;;;;;;;;;;21.80;86.80;;;;;;5029427;28;20202;-83
2023/05/09 07:21:28;;;;;;;;;;;21.80;86.90;;;;;;5028365;28;20293;-83
2023/05/09 07:23:54;;;;;;;;;;;21.80;86.60;;;;;;5027916;28;20487;-83
2023/05/09 07:26:20;;;;;;;;;;;21.80;86.30;;;;;;5026594;28;20314;-83
2023/05/09 07:28:45;;;;;;;;;;;21.90;86.60;;;;;;5028605;28;19917;-84
2023/05/09 07:31:11;;;;;;;;;;;21.90;86.50;;;;;;5028640;28;20065;-84
2023/05/09 07:33:36;;;;;;;;;;;21.90;86.40;;;;;;5030809;28;19952;-83
2023/05/09 07:36:05;;;;;;;;;;;22.00;86.40;;;;;;5048451;28;20202;-83
2023/05/09 07:38:30;;;;;;;;;;;22.00;86.10;;;;;;5034119;28;20101;-83
2023/05/09 07:40:58;;;;;;;;;;;22.10;85.80;;;;;;5050455;28;19909;-83
2023/05/09 07:43:24;;;;;;;;;;;22.10;85.70;;;;;;5048493;28;19909;-82
2023/05/09 07:45:50;;;;;;;;;;;22.20;85.50;;;;;;5028019;28;19993;-83
2023/05/09 07:48:18;;;;;;;;;;;22.20;85.40;;;;;;5044434;28;19913;-83
2023/05/09 07:50:43;;;;;;;;;;;22.20;85.20;;;;;;5044802;28;20275;-83
2023/05/09 07:53:12;;;;;;;;;;;22.20;85.30;;;;;;5028918;28;19920;-83
2023/05/09 07:55:38;;;;;;;;;;;22.20;85.50;;;;;;5029577;28;20069;-83
2023/05/09 07:58:03;;;;;;;;;;;22.30;85.40;;;;;;5029441;28;20210;-83
2023/05/09 08:00:29;;;;;;;;;;;22.40;85.30;;;;;;5047925;28;19919;-83
2023/05/09 08:02:54;;;;;;;;;;;22.50;84.90;;;;;;5047770;28;20549;-83
2023/05/09 08:05:20;;;;;;;;;;;22.60;84.10;;;;;;5048329;28;19916;-83
2023/05/09 08:07:45;;;;;;;;;;;22.60;83.60;;;;;;5048316;28;19909;-83
2023/05/09 08:10:11;;;;;;;;;;;22.60;84.10;;;;;;5047777;28;19923;-84
2023/05/09 08:12:36;;;;;;;;;;;22.60;84.50;;;;;;5049252;28;19909;-83
2023/05/09 08:15:02;;;;;;;;;;;22.50;85.10;;;;;;5046604;28;20107;-83
2023/05/09 08:17:27;;;;;;;;;;;22.40;85.90;;;;;;5031165;28;19916;-83
2023/05/09 08:19:53;;;;;;;;;;;22.40;86.40;;;;;;5028512;28;20263;-83
2023/05/09 08:22:19;;;;;;;;;;;22.40;86.50;;;;;;5029729;28;19916;-83
2023/05/09 08:24:45;;;;;;;;;;;22.30;87.00;;;;;;5028357;28;19947;-83
2023/05/09 08:27:14;;;;;;;;;;;22.30;86.40;;;;;;5027809;28;20309;-83
2023/05/09 08:29:40;;;;;;;;;;;22.30;87.10;;;;;;5045565;28;19923;-83
2023/05/09 08:32:05;;;;;;;;;;;22.40;87.10;;;;;;5045833;28;19908;-83
2023/05/09 08:34:33;;;;;;;;;;;22.40;86.10;;;;;;5043954;28;19947;-83
2023/05/09 08:37:02;;;;;;;;;;;22.40;86.20;;;;;;5046992;28;19916;-83
2023/05/09 08:39:29;;;;;;;;;;;22.50;86.70;;;;;;5028861;28;19962;-83
2023/05/09 08:41:58;;;;;;;;;;;22.60;86.60;;;;;;5030700;28;19970;-83
2023/05/09 08:44:31;;;;;;;;;;;23.00;85.50;;;;;;5049908;28;19950;-83
2023/05/09 08:47:00;;;;;;;;;;;23.10;82.70;;;;;;5029772;28;20297;-83
2023/05/09 08:49:26;;;;;;;;;;;23.20;82.00;;;;;;5029169;28;20093;-83
2023/05/09 08:51:52;;;;;;;;;;;23.20;81.80;;;;;;5047752;28;19970;-83
2023/05/09 08:54:18;;;;;;;;;;;23.80;79.20;;;;;;5046621;28;19916;-83
2023/05/09 08:56:46;;;;;;;;;;;23.70;78.30;;;;;;5028650;28;19982;-83
2023/05/09 08:59:13;;;;;;;;;;;23.60;78.70;;;;;;5029341;28;20263;-83
2023/05/09 09:01:39;;;;;;;;;;;23.50;78.60;;;;;;5028291;28;19916;-83
2023/05/09 09:04:05;;;;;;;;;;;23.40;79.00;;;;;;5045420;28;20002;-83
2023/05/09 09:06:34;;;;;;;;;;;23.40;79.20;;;;;;5029884;28;19909;-83
2023/05/09 09:09:00;;;;;;;;;;;23.30;79.50;;;;;;5028322;28;20314;-83
2023/05/09 09:11:27;;;;;;;;;;;23.20;80.00;;;;;;5029323;28;19952;-83
2023/05/09 09:13:53;;;;;;;;;;;23.10;80.30;;;;;;5028347;28;19932;-83
2023/05/09 09:16:19;;;;;;;;;;;23.50;79.50;;;;;;5045712;28;19909;-83
2023/05/09 09:18:45;;;;;;;;;;;24.30;76.30;;;;;;5028995;28;20350;-83
2023/05/09 09:21:11;;;;;;;;;;;24.50;74.50;;;;;;5030010;28;20007;-83
2023/05/09 09:23:41;;;;;;;;;;;24.80;72.40;;;;;;5030023;28;20509;-83
2023/05/09 09:26:10;;;;;;;;;;;25.20;70.00;;;;;;5047224;28;19908;-83
2023/05/09 09:28:35;;;;;;;;;;;25.10;69.20;;;;;;5029971;28;19954;-83
2023/05/09 09:31:01;;;;;;;;;;;25.40;68.30;;;;;;5046341;28;20159;-83
2023/05/09 09:33:30;;;;;;;;;;;25.60;67.20;;;;;;5048223;28;19909;-83
2023/05/09 09:35:59;;;;;;;;;;;26.40;65.50;;;;;;5047324;28;19909;-82
2023/05/09 09:38:38;;;;;;;;;;;26.80;63.30;;;;;;5046884;28;19936;-83
2023/05/09 09:41:06;;;;;;;;;;;27.20;61.70;;;;;;5028016;28;19950;-84
2023/05/09 09:43:32;;;;;;;;;;;27.70;59.90;;;;;;5028019;28;20146;-83
2023/05/09 09:46:01;;;;;;;;;;;28.00;58.90;;;;;;5029064;28;19931;-83
2023/05/09 09:48:33;;;;;;;;;;;28.10;58.40;;;;;;5028807;28;19920;-83
2023/05/09 09:51:09;;;;;;;;;;;28.20;58.20;;;;;;5034209;28;19897;-83
2023/05/09 09:53:39;;;;;;;;;;;28.00;57.90;;;;;;5029538;28;19996;-83
2023/05/09 09:56:05;;;;;;;;;;;27.90;58.00;;;;;;5028999;28;20032;-83
2023/05/09 09:58:34;;;;;;;;;;;27.50;58.20;;;;;;5045708;28;19917;-83
2023/05/09 10:01:12;;;;;;;;;;;27.40;58.40;;;;;;5027075;28;20070;-82
2023/05/09 10:03:41;;;;;;;;;;;27.10;58.80;;;;;;5045236;28;19909;-83
2023/05/09 10:06:10;;;;;;;;;;;26.80;59.20;;;;;;5029862;28;20326;-83
2023/05/09 10:08:36;;;;;;;;;;;26.50;59.70;;;;;;5030425;28;19909;-83
2023/05/09 10:11:02;;;;;;;;;;;26.20;60.20;;;;;;5047706;28;20157;-83
2023/05/09 10:13:33;;;;;;;;;;;26.10;60.90;;;;;;5046393;28;20016;-83
2023/05/09 10:16:04;;;;;;;;;;;26.00;61.50;;;;;;5028667;28;20193;-84
2023/05/09 10:18:30;;;;;;;;;;;25.90;61.90;;;;;;5029501;28;19915;-83
2023/05/09 10:21:03;;;;;;;;;;;25.80;62.30;;;;;;5028544;28;19909;-83
2023/05/09 10:23:30;;;;;;;;;;;25.80;62.70;;;;;;5027054;28;20195;-83
2023/05/09 10:26:02;;;;;;;;;;;25.80;63.00;;;;;;5047733;28;20291;-84
2023/05/09 10:28:32;;;;;;;;;;;25.70;63.20;;;;;;5030001;28;20352;-84
2023/05/09 10:31:15;;;;;;;;;;;25.70;63.40;;;;;;5026022;28;20030;-83
2023/05/09 10:33:42;;;;;;;;;;;25.70;63.50;;;;;;5027875;28;19917;-83
2023/05/09 10:36:08;;;;;;;;;;;25.70;63.80;;;;;;5027040;28;19923;-83
2023/05/09 10:38:37;;;;;;;;;;;25.60;64.00;;;;;;5032819;28;19909;-83
2023/05/09 10:41:04;;;;;;;;;;;25.60;64.20;;;;;;5029544;28;19913;-83
2023/05/09 10:43:30;;;;;;;;;;;25.50;64.30;;;;;;5032216;28;19990;-83
2023/05/09 10:46:08;;;;;;;;;;;25.60;64.60;;;;;;5047304;28;20029;-83
2023/05/09 10:48:34;;;;;;;;;;;25.50;64.60;;;;;;5047877;28;19909;-83
2023/05/09 10:51:20;;;;;;;;;;;25.50;64.80;;;;;;5031290;28;19909;-83
2023/05/09 10:53:55;;;;;;;;;;;25.50;64.90;;;;;;5029587;28;19967;-83
2023/05/09 10:56:25;;;;;;;;;;;25.40;65.10;;;;;;5025879;28;19909;-83
2023/05/09 10:58:51;;;;;;;;;;;25.40;65.40;;;;;;5026686;28;20516;-83
2023/05/09 11:01:27;;;;;;;;;;;25.40;65.70;;;;;;5048227;28;19919;-83
2023/05/09 11:03:53;;;;;;;;;;;25.40;65.90;;;;;;5029918;28;20015;-82
2023/05/09 11:06:42;;;;;;;;;;;25.30;66.10;;;;;;5050048;28;20263;-82
2023/05/09 11:09:27;;;;;;;;;;;25.30;66.40;;;;;;5023184;28;19913;-83
2023/05/09 11:12:12;;;;;;;;;;;25.30;66.60;;;;;;5050328;28;19987;-83
2023/05/09 11:14:45;;;;;;;;;;;25.20;66.90;;;;;;5034707;28;19912;-82
2023/05/09 11:17:11;;;;;;;;;;;25.30;67.10;;;;;;5047867;28;20190;-83
2023/05/09 11:19:45;;;;;;;;;;;25.30;67.10;;;;;;5048140;28;20321;-83
2023/05/09 11:22:26;;;;;;;;;;;25.30;67.50;;;;;;5045962;28;19978;-83
2023/05/09 11:24:59;;;;;;;;;;;25.30;67.50;;;;;;5028725;28;19990;-83
2023/05/09 11:27:28;;;;;;;;;;;25.20;67.10;;;;;;5047687;28;20115;-83
2023/05/09 11:30:07;;;;;;;;;;;25.20;67.40;;;;;;5027194;28;19985;-83
2023/05/09 11:32:46;;;;;;;;;;;25.20;67.70;;;;;;5042929;28;20399;-83
2023/05/09 11:35:21;;;;;;;;;;;25.10;67.80;;;;;;5023122;28;20072;-83
2023/05/09 11:37:48;;;;;;;;;;;25.10;68.10;;;;;;5023840;28;19909;-83
2023/05/09 11:40:16;;;;;;;;;;;25.10;68.30;;;;;;5024430;28;20280;-83
2023/05/09 11:42:49;;;;;;;;;;;25.00;68.30;;;;;;5024407;28;19909;-83
2023/05/09 11:45:15;;;;;;;;;;;25.00;68.50;;;;;;5023649;28;19916;-83
2023/05/09 11:47:40;;;;;;;;;;;24.90;68.60;;;;;;5022414;28;19910;-83
2023/05/09 11:50:10;;;;;;;;;;;24.90;68.90;;;;;;5025391;28;19928;-83
2023/05/09 11:52:36;;;;;;;;;;;24.90;69.10;;;;;;5026058;28;19936;-83
2023/05/09 11:55:05;;;;;;;;;;;24.90;69.10;;;;;;5025954;28;20360;-82
2023/05/09 11:57:30;;;;;;;;;;;24.90;69.20;;;;;;5025246;28;20298;-82
2023/05/09 12:00:00;;;;;;;;;;;24.80;69.40;;;;;;5026105;28;19909;-82
2023/05/09 12:02:26;;;;;;;;;;;24.80;69.90;;;;;;5028113;28;19909;-83
2023/05/09 12:04:53;;;;;;;;;;;24.70;70.10;;;;;;5025351;28;19909;-82
2023/05/09 12:07:19;;;;;;;;;;;24.60;70.40;;;;;;5028610;28;19909;-83
2023/05/09 12:09:47;;;;;;;;;;;24.60;70.80;;;;;;5027093;28;20301;-83
2023/05/09 12:12:13;;;;;;;;;;;24.60;71.00;;;;;;5026247;28;19909;-83
2023/05/09 12:14:42;;;;;;;;;;;24.50;71.20;;;;;;5028871;28;19944;-83
2023/05/09 12:17:08;;;;;;;;;;;24.50;71.50;;;;;;5029683;28;19970;-83
2023/05/09 12:19:37;;;;;;;;;;;24.50;71.50;;;;;;5029722;28;19910;-82
2023/05/09 12:22:05;;;;;;;;;;;24.60;71.40;;;;;;5029572;28;19913;-83
2023/05/09 12:24:33;;;;;;;;;;;24.70;71.30;;;;;;5027036;28;19997;-83
2023/05/09 12:26:59;;;;;;;;;;;24.70;71.20;;;;;;5030060;28;19957;-83
2023/05/09 12:29:25;;;;;;;;;;;24.70;71.00;;;;;;5028949;28;19960;-83
2023/05/09 12:31:51;;;;;;;;;;;24.80;71.00;;;;;;5029648;28;19992;-83
2023/05/09 12:34:20;;;;;;;;;;;24.80;70.80;;;;;;5031866;28;19923;-83
2023/05/09 12:36:52;;;;;;;;;;;24.80;71.10;;;;;;5029240;28;19917;-83
2023/05/09 12:39:20;;;;;;;;;;;24.70;71.20;;;;;;5028936;28;19917;-83
2023/05/09 12:41:46;;;;;;;;;;;24.70;71.60;;;;;;5044893;28;19995;-83
2023/05/09 12:44:21;;;;;;;;;;;24.70;71.60;;;;;;5027563;28;19996;-82
2023/05/09 12:46:54;;;;;;;;;;;24.60;71.70;;;;;;5027830;28;19909;-83
2023/05/09 12:49:21;;;;;;;;;;;24.60;72.10;;;;;;5028034;28;19913;-83
2023/05/09 12:51:47;;;;;;;;;;;24.60;72.20;;;;;;5052252;28;19913;-83
2023/05/09 12:54:13;;;;;;;;;;;24.60;72.30;;;;;;5031201;28;20236;-82
2023/05/09 12:56:39;;;;;;;;;;;24.60;72.40;;;;;;5030398;28;19982;-83
2023/05/09 12:59:09;;;;;;;;;;;24.60;72.30;;;;;;5046688;28;20026;-83
2023/05/09 13:01:35;;;;;;;;;;;24.60;72.20;;;;;;5028146;28;20161;-83
2023/05/09 13:04:04;;;;;;;;;;;24.60;72.20;;;;;;5023773;28;19963;-83
2023/05/09 13:06:30;;;;;;;;;;;24.60;72.30;;;;;;5042540;28;19919;-83
2023/05/09 13:08:57;;;;;;;;;;;24.60;72.20;;;;;;5028874;28;19913;-83
2023/05/09 13:11:23;;;;;;;;;;;24.60;72.20;;;;;;5026615;28;20332;-83
2023/05/09 13:13:48;;;;;;;;;;;24.70;72.20;;;;;;5028836;28;20237;-83
2023/05/09 13:16:14;;;;;;;;;;;24.70;72.10;;;;;;5027501;28;19927;-83
2023/05/09 13:18:39;;;;;;;;;;;24.70;72.00;;;;;;5026810;28;19919;-83
2023/05/09 13:21:14;;;;;;;;;;;24.70;72.30;;;;;;5028158;28;20234;-83
2023/05/09 13:23:41;;;;;;;;;;;24.70;72.00;;;;;;5026825;28;20489;-83
2023/05/09 13:26:09;;;;;;;;;;;24.70;72.00;;;;;;5044577;28;19923;-83
2023/05/09 13:28:35;;;;;;;;;;;24.70;72.10;;;;;;5045366;28;19999;-83
2023/05/09 13:31:01;;;;;;;;;;;24.70;72.10;;;;;;5028211;28;20001;-83
2023/05/09 13:33:27;;;;;;;;;;;24.70;72.20;;;;;;5030471;28;19908;-83
2023/05/09 13:35:52;;;;;;;;;;;24.60;72.40;;;;;;5028455;28;19924;-83
2023/05/09 13:38:21;;;;;;;;;;;24.50;72.80;;;;;;5028895;28;19909;-83
2023/05/09 13:40:46;;;;;;;;;;;24.50;73.20;;;;;;5025392;28;20198;-83
2023/05/09 13:43:12;;;;;;;;;;;24.40;73.40;;;;;;5025485;28;20251;-83
2023/05/09 13:45:38;;;;;;;;;;;24.40;73.50;;;;;;5026225;28;19974;-83
2023/05/09 13:48:06;;;;;;;;;;;24.40;73.70;;;;;;5026899;28;20124;-83
2023/05/09 13:50:35;;;;;;;;;;;24.40;73.80;;;;;;5031689;28;19967;-82
2023/05/09 13:53:04;;;;;;;;;;;24.40;74.00;;;;;;5049537;28;19908;-83
2023/05/09 13:55:29;;;;;;;;;;;24.40;74.30;;;;;;5048724;28;20339;-83
2023/05/09 13:57:55;;;;;;;;;;;24.30;74.60;;;;;;5048470;28;20385;-83
2023/05/09 14:00:21;;;;;;;;;;;24.30;74.60;;;;;;5046495;28;19913;-83
2023/05/09 14:02:46;;;;;;;;;;;24.30;74.80;;;;;;5046791;28;20297;-82
2023/05/09 14:05:15;;;;;;;;;;;24.30;75.00;;;;;;5033121;28;20051;-82
2023/05/09 14:07:41;;;;;;;;;;;24.30;75.00;;;;;;5040273;28;19995;-83
2023/05/09 14:10:30;;;;;;;;;;;24.20;75.20;;;;;;5025957;28;19917;-83
2023/05/09 14:13:01;;;;;;;;;;;24.20;75.30;;;;;;5026594;28;20144;-83
2023/05/09 14:15:28;;;;;;;;;;;24.10;75.50;;;;;;5044297;28;20093;-83
2023/05/09 14:18:05;;;;;;;;;;;24.10;75.90;;;;;;5028562;28;19905;-83
2023/05/09 14:20:31;;;;;;;;;;;24.10;76.20;;;;;;5045451;28;20295;-83